sensor_id;sensor_type;location;lat;lon;timestamp;P1;durP1;ratioP1;P2;durP2;ratioP2
64487;SDS011;50864;45.050;39.014;2023-04-06T00:00:32;12.70;;;5.47;;
64487;SDS011;50864;45.050;39.014;2023-04-06T00:02:58;13.50;;;5.32;;
64487;SDS011;50864;45.050;39.014;2023-04-06T00:05:24;11.75;;;5.95;;
64487;SDS011;50864;45.050;39.014;2023-04-06T00:07:50;9.55;;;5.90;;
64487;SDS011;50864;45.050;39.014;2023-04-06T00:10:16;13.57;;;5.50;;
64487;SDS011;50864;45.050;39.014;2023-04-06T00:12:42;13.30;;;5.72;;
64487;SDS011;50864;45.050;39.014;2023-04-06T00:15:08;13.93;;;6.05;;
64487;SDS011;50864;45.050;39.014;2023-04-06T00:17:34;13.25;;;6.03;;
64487;SDS011;50864;45.050;39.014;2023-04-06T00:20:00;15.52;;;5.55;;
64487;SDS011;50864;45.050;39.014;2023-04-06T00:22:25;15.27;;;6.05;;
64487;SDS011;50864;45.050;39.014;2023-04-06T00:24:51;13.30;;;5.40;;
64487;SDS011;50864;45.050;39.014;2023-04-06T00:27:17;12.85;;;5.87;;
64487;SDS011;50864;45.050;39.014;2023-04-06T00:29:43;12.95;;;5.72;;
64487;SDS011;50864;45.050;39.014;2023-04-06T00:32:09;12.05;;;5.85;;
64487;SDS011;50864;45.050;39.014;2023-04-06T00:34:35;13.73;;;5.93;;
64487;SDS011;50864;45.050;39.014;2023-04-06T00:37:01;14.63;;;6.00;;
64487;SDS011;50864;45.050;39.014;2023-04-06T00:39:27;10.98;;;5.50;;
64487;SDS011;50864;45.050;39.014;2023-04-06T00:41:52;16.77;;;5.75;;
64487;SDS011;50864;45.050;39.014;2023-04-06T00:44:19;23.17;;;6.03;;
64487;SDS011;50864;45.050;39.014;2023-04-06T00:46:45;13.27;;;6.30;;
64487;SDS011;50864;45.050;39.014;2023-04-06T00:49:11;13.70;;;6.15;;
64487;SDS011;50864;45.050;39.014;2023-04-06T00:51:37;15.75;;;6.25;;
64487;SDS011;50864;45.050;39.014;2023-04-06T00:54:03;15.13;;;6.47;;
64487;SDS011;50864;45.050;39.014;2023-04-06T00:56:30;14.27;;;6.45;;
64487;SDS011;50864;45.050;39.014;2023-04-06T00:58:56;13.27;;;5.68;;
64487;SDS011;50864;45.050;39.014;2023-04-06T01:01:23;13.68;;;6.30;;
64487;SDS011;50864;45.050;39.014;2023-04-06T01:03:49;9.82;;;5.30;;
64487;SDS011;50864;45.050;39.014;2023-04-06T01:06:16;12.32;;;5.18;;
64487;SDS011;50864;45.050;39.014;2023-04-06T01:08:42;11.75;;;5.90;;
64487;SDS011;50864;45.050;39.014;2023-04-06T01:11:08;16.55;;;6.30;;
64487;SDS011;50864;45.050;39.014;2023-04-06T01:13:36;13.57;;;5.20;;
64487;SDS011;50864;45.050;39.014;2023-04-06T01:16:03;19.27;;;5.68;;
64487;SDS011;50864;45.050;39.014;2023-04-06T01:18:29;14.18;;;5.80;;
64487;SDS011;50864;45.050;39.014;2023-04-06T01:20:56;10.80;;;5.55;;
64487;SDS011;50864;45.050;39.014;2023-04-06T01:23:24;12.05;;;5.80;;
64487;SDS011;50864;45.050;39.014;2023-04-06T01:25:50;11.65;;;5.12;;
64487;SDS011;50864;45.050;39.014;2023-04-06T01:28:16;15.75;;;6.00;;
64487;SDS011;50864;45.050;39.014;2023-04-06T01:30:42;11.63;;;5.10;;
64487;SDS011;50864;45.050;39.014;2023-04-06T01:33:08;12.37;;;5.50;;
64487;SDS011;50864;45.050;39.014;2023-04-06T01:35:35;13.10;;;5.37;;
64487;SDS011;50864;45.050;39.014;2023-04-06T01:38:04;10.10;;;5.15;;
64487;SDS011;50864;45.050;39.014;2023-04-06T01:40:30;13.23;;;5.28;;
64487;SDS011;50864;45.050;39.014;2023-04-06T01:42:55;13.00;;;5.50;;
64487;SDS011;50864;45.050;39.014;2023-04-06T01:45:26;15.38;;;5.32;;
64487;SDS011;50864;45.050;39.014;2023-04-06T01:47:53;12.95;;;6.40;;
64487;SDS011;50864;45.050;39.014;2023-04-06T01:50:21;13.43;;;5.80;;
64487;SDS011;50864;45.050;39.014;2023-04-06T01:52:47;12.57;;;5.78;;
64487;SDS011;50864;45.050;39.014;2023-04-06T01:55:14;14.87;;;5.97;;
64487;SDS011;50864;45.050;39.014;2023-04-06T01:57:40;12.82;;;5.20;;
64487;SDS011;50864;45.050;39.014;2023-04-06T02:00:07;14.80;;;5.30;;
64487;SDS011;50864;45.050;39.014;2023-04-06T02:02:38;12.20;;;5.07;;
64487;SDS011;50864;45.050;39.014;2023-04-06T02:05:05;14.77;;;5.87;;
64487;SDS011;50864;45.050;39.014;2023-04-06T02:07:31;14.05;;;5.75;;
64487;SDS011;50864;45.050;39.014;2023-04-06T02:09:58;9.43;;;4.45;;
64487;SDS011;50864;45.050;39.014;2023-04-06T02:12:25;8.23;;;4.32;;
64487;SDS011;50864;45.050;39.014;2023-04-06T02:14:51;14.38;;;5.50;;
64487;SDS011;50864;45.050;39.014;2023-04-06T02:17:17;12.55;;;5.60;;
64487;SDS011;50864;45.050;39.014;2023-04-06T02:19:43;11.15;;;4.90;;
64487;SDS011;50864;45.050;39.014;2023-04-06T02:22:09;10.20;;;5.72;;
64487;SDS011;50864;45.050;39.014;2023-04-06T02:24:35;10.07;;;5.12;;
64487;SDS011;50864;45.050;39.014;2023-04-06T02:27:01;12.57;;;5.30;;
64487;SDS011;50864;45.050;39.014;2023-04-06T02:29:27;12.98;;;5.10;;
64487;SDS011;50864;45.050;39.014;2023-04-06T02:31:53;12.57;;;5.30;;
64487;SDS011;50864;45.050;39.014;2023-04-06T02:34:19;10.65;;;5.12;;
64487;SDS011;50864;45.050;39.014;2023-04-06T02:36:46;14.15;;;5.68;;
64487;SDS011;50864;45.050;39.014;2023-04-06T02:39:14;9.77;;;5.18;;
64487;SDS011;50864;45.050;39.014;2023-04-06T02:41:40;10.52;;;5.43;;
64487;SDS011;50864;45.050;39.014;2023-04-06T02:44:07;11.27;;;5.18;;
64487;SDS011;50864;45.050;39.014;2023-04-06T02:46:35;9.95;;;4.62;;
64487;SDS011;50864;45.050;39.014;2023-04-06T02:49:02;10.52;;;5.10;;
64487;SDS011;50864;45.050;39.014;2023-04-06T02:51:29;10.95;;;5.10;;
64487;SDS011;50864;45.050;39.014;2023-04-06T02:53:56;11.43;;;4.87;;
64487;SDS011;50864;45.050;39.014;2023-04-06T02:56:22;14.27;;;5.37;;
64487;SDS011;50864;45.050;39.014;2023-04-06T02:58:48;10.00;;;5.30;;
64487;SDS011;50864;45.050;39.014;2023-04-06T03:01:16;11.63;;;5.45;;
64487;SDS011;50864;45.050;39.014;2023-04-06T03:03:42;14.27;;;5.80;;
64487;SDS011;50864;45.050;39.014;2023-04-06T03:06:09;10.32;;;4.90;;
64487;SDS011;50864;45.050;39.014;2023-04-06T03:08:35;11.75;;;5.07;;
64487;SDS011;50864;45.050;39.014;2023-04-06T03:11:01;10.10;;;5.37;;
64487;SDS011;50864;45.050;39.014;2023-04-06T03:13:29;12.02;;;5.65;;
64487;SDS011;50864;45.050;39.014;2023-04-06T03:15:55;14.57;;;6.37;;
64487;SDS011;50864;45.050;39.014;2023-04-06T03:18:22;10.60;;;5.82;;
64487;SDS011;50864;45.050;39.014;2023-04-06T03:20:49;11.48;;;5.62;;
64487;SDS011;50864;45.050;39.014;2023-04-06T03:23:15;11.95;;;5.60;;
64487;SDS011;50864;45.050;39.014;2023-04-06T03:25:41;15.00;;;6.20;;
64487;SDS011;50864;45.050;39.014;2023-04-06T03:28:07;14.20;;;6.40;;
64487;SDS011;50864;45.050;39.014;2023-04-06T03:30:35;13.48;;;6.75;;
64487;SDS011;50864;45.050;39.014;2023-04-06T03:33:00;14.68;;;7.18;;
64487;SDS011;50864;45.050;39.014;2023-04-06T03:35:27;14.65;;;6.15;;
64487;SDS011;50864;45.050;39.014;2023-04-06T03:37:53;14.10;;;7.50;;
64487;SDS011;50864;45.050;39.014;2023-04-06T03:40:19;9.93;;;5.78;;
64487;SDS011;50864;45.050;39.014;2023-04-06T03:42:45;12.68;;;5.75;;
64487;SDS011;50864;45.050;39.014;2023-04-06T03:45:11;10.50;;;4.75;;
64487;SDS011;50864;45.050;39.014;2023-04-06T03:47:43;11.23;;;5.47;;
64487;SDS011;50864;45.050;39.014;2023-04-06T03:50:09;10.25;;;5.35;;
64487;SDS011;50864;45.050;39.014;2023-04-06T03:52:35;10.32;;;5.30;;
64487;SDS011;50864;45.050;39.014;2023-04-06T03:55:01;10.63;;;5.28;;
64487;SDS011;50864;45.050;39.014;2023-04-06T03:57:27;13.07;;;5.57;;
64487;SDS011;50864;45.050;39.014;2023-04-06T03:59:56;9.25;;;5.20;;
64487;SDS011;50864;45.050;39.014;2023-04-06T04:02:24;11.18;;;5.18;;
64487;SDS011;50864;45.050;39.014;2023-04-06T04:04:50;11.98;;;5.28;;
64487;SDS011;50864;45.050;39.014;2023-04-06T04:07:17;13.65;;;5.80;;
64487;SDS011;50864;45.050;39.014;2023-04-06T04:09:42;11.52;;;5.72;;
64487;SDS011;50864;45.050;39.014;2023-04-06T04:12:10;10.57;;;5.65;;
64487;SDS011;50864;45.050;39.014;2023-04-06T04:14:35;11.90;;;5.37;;
64487;SDS011;50864;45.050;39.014;2023-04-06T04:17:01;13.10;;;5.60;;
64487;SDS011;50864;45.050;39.014;2023-04-06T04:19:27;10.48;;;5.95;;
64487;SDS011;50864;45.050;39.014;2023-04-06T04:21:53;11.15;;;5.60;;
64487;SDS011;50864;45.050;39.014;2023-04-06T04:24:20;11.57;;;6.25;;
64487;SDS011;50864;45.050;39.014;2023-04-06T04:26:46;11.80;;;5.68;;
64487;SDS011;50864;45.050;39.014;2023-04-06T04:29:13;11.15;;;6.32;;
64487;SDS011;50864;45.050;39.014;2023-04-06T04:31:39;11.18;;;5.55;;
64487;SDS011;50864;45.050;39.014;2023-04-06T04:34:06;10.70;;;5.30;;
64487;SDS011;50864;45.050;39.014;2023-04-06T04:36:32;10.95;;;5.53;;
64487;SDS011;50864;45.050;39.014;2023-04-06T04:38:59;11.25;;;5.80;;
64487;SDS011;50864;45.050;39.014;2023-04-06T04:41:28;9.23;;;5.40;;
64487;SDS011;50864;45.050;39.014;2023-04-06T04:43:54;12.20;;;5.62;;
64487;SDS011;50864;45.050;39.014;2023-04-06T04:46:21;10.52;;;5.30;;
64487;SDS011;50864;45.050;39.014;2023-04-06T04:48:47;11.32;;;5.15;;
64487;SDS011;50864;45.050;39.014;2023-04-06T04:51:13;12.30;;;5.10;;
64487;SDS011;50864;45.050;39.014;2023-04-06T04:53:39;11.48;;;6.00;;
64487;SDS011;50864;45.050;39.014;2023-04-06T04:56:07;7.85;;;4.18;;
64487;SDS011;50864;45.050;39.014;2023-04-06T04:58:32;10.27;;;4.97;;
64487;SDS011;50864;45.050;39.014;2023-04-06T05:00:58;8.75;;;4.72;;
64487;SDS011;50864;45.050;39.014;2023-04-06T05:03:25;10.05;;;5.62;;
64487;SDS011;50864;45.050;39.014;2023-04-06T05:05:53;10.27;;;5.18;;
64487;SDS011;50864;45.050;39.014;2023-04-06T05:08:23;10.43;;;4.53;;
64487;SDS011;50864;45.050;39.014;2023-04-06T05:10:49;15.25;;;4.97;;
64487;SDS011;50864;45.050;39.014;2023-04-06T05:13:15;9.52;;;4.22;;
64487;SDS011;50864;45.050;39.014;2023-04-06T05:15:41;8.43;;;4.32;;
64487;SDS011;50864;45.050;39.014;2023-04-06T05:18:08;9.80;;;4.53;;
64487;SDS011;50864;45.050;39.014;2023-04-06T05:20:34;13.23;;;5.22;;
64487;SDS011;50864;45.050;39.014;2023-04-06T05:23:00;7.72;;;4.72;;
64487;SDS011;50864;45.050;39.014;2023-04-06T05:25:26;12.10;;;4.82;;
64487;SDS011;50864;45.050;39.014;2023-04-06T05:27:53;9.50;;;4.60;;
64487;SDS011;50864;45.050;39.014;2023-04-06T05:30:23;11.25;;;5.40;;
64487;SDS011;50864;45.050;39.014;2023-04-06T05:32:49;9.30;;;4.53;;
64487;SDS011;50864;45.050;39.014;2023-04-06T05:35:16;9.57;;;4.62;;
64487;SDS011;50864;45.050;39.014;2023-04-06T05:37:44;12.93;;;5.20;;
64487;SDS011;50864;45.050;39.014;2023-04-06T05:40:10;13.45;;;5.50;;
64487;SDS011;50864;45.050;39.014;2023-04-06T05:42:36;9.77;;;5.15;;
64487;SDS011;50864;45.050;39.014;2023-04-06T05:45:04;10.65;;;4.95;;
64487;SDS011;50864;45.050;39.014;2023-04-06T05:47:31;9.45;;;5.10;;
64487;SDS011;50864;45.050;39.014;2023-04-06T05:50:00;10.75;;;5.40;;
64487;SDS011;50864;45.050;39.014;2023-04-06T05:52:28;11.35;;;5.60;;
64487;SDS011;50864;45.050;39.014;2023-04-06T05:54:54;13.55;;;5.75;;
64487;SDS011;50864;45.050;39.014;2023-04-06T05:57:20;10.52;;;5.35;;
64487;SDS011;50864;45.050;39.014;2023-04-06T05:59:47;13.32;;;5.82;;
64487;SDS011;50864;45.050;39.014;2023-04-06T06:02:13;11.10;;;5.22;;
64487;SDS011;50864;45.050;39.014;2023-04-06T06:04:40;11.73;;;5.40;;
64487;SDS011;50864;45.050;39.014;2023-04-06T06:07:05;9.38;;;5.10;;
64487;SDS011;50864;45.050;39.014;2023-04-06T06:09:32;11.43;;;5.80;;
64487;SDS011;50864;45.050;39.014;2023-04-06T06:11:59;11.50;;;5.70;;
64487;SDS011;50864;45.050;39.014;2023-04-06T06:14:25;10.52;;;5.55;;
64487;SDS011;50864;45.050;39.014;2023-04-06T06:16:54;10.50;;;5.55;;
64487;SDS011;50864;45.050;39.014;2023-04-06T06:19:20;10.35;;;5.22;;
64487;SDS011;50864;45.050;39.014;2023-04-06T06:21:46;12.48;;;5.87;;
64487;SDS011;50864;45.050;39.014;2023-04-06T06:24:12;14.02;;;6.60;;
64487;SDS011;50864;45.050;39.014;2023-04-06T06:26:38;12.00;;;6.72;;
64487;SDS011;50864;45.050;39.014;2023-04-06T06:29:06;10.18;;;6.15;;
64487;SDS011;50864;45.050;39.014;2023-04-06T06:31:32;13.00;;;6.65;;
64487;SDS011;50864;45.050;39.014;2023-04-06T06:33:59;11.30;;;6.45;;
64487;SDS011;50864;45.050;39.014;2023-04-06T06:36:25;13.98;;;6.18;;
64487;SDS011;50864;45.050;39.014;2023-04-06T06:38:51;11.18;;;6.12;;
64487;SDS011;50864;45.050;39.014;2023-04-06T06:41:17;11.27;;;6.07;;
64487;SDS011;50864;45.050;39.014;2023-04-06T06:43:43;10.52;;;6.12;;
64487;SDS011;50864;45.050;39.014;2023-04-06T06:46:12;16.33;;;7.07;;
64487;SDS011;50864;45.050;39.014;2023-04-06T06:48:39;11.95;;;7.07;;
64487;SDS011;50864;45.050;39.014;2023-04-06T06:51:08;10.98;;;6.55;;
64487;SDS011;50864;45.050;39.014;2023-04-06T06:53:35;11.65;;;6.37;;
64487;SDS011;50864;45.050;39.014;2023-04-06T06:56:01;11.30;;;5.62;;
64487;SDS011;50864;45.050;39.014;2023-04-06T06:58:29;10.32;;;5.03;;
64487;SDS011;50864;45.050;39.014;2023-04-06T07:00:55;11.20;;;4.97;;
64487;SDS011;50864;45.050;39.014;2023-04-06T07:03:22;9.57;;;4.70;;
64487;SDS011;50864;45.050;39.014;2023-04-06T07:05:48;7.43;;;4.20;;
64487;SDS011;50864;45.050;39.014;2023-04-06T07:08:19;10.95;;;5.10;;
64487;SDS011;50864;45.050;39.014;2023-04-06T07:10:45;7.80;;;4.10;;
64487;SDS011;50864;45.050;39.014;2023-04-06T07:13:13;9.27;;;4.40;;
64487;SDS011;50864;45.050;39.014;2023-04-06T07:15:43;10.00;;;4.50;;
64487;SDS011;50864;45.050;39.014;2023-04-06T07:18:09;9.32;;;3.92;;
64487;SDS011;50864;45.050;39.014;2023-04-06T07:20:35;8.93;;;4.30;;
64487;SDS011;50864;45.050;39.014;2023-04-06T07:23:04;8.07;;;4.00;;
64487;SDS011;50864;45.050;39.014;2023-04-06T07:25:31;8.65;;;4.35;;
64487;SDS011;50864;45.050;39.014;2023-04-06T07:27:56;8.18;;;4.07;;
64487;SDS011;50864;45.050;39.014;2023-04-06T07:30:23;8.30;;;4.72;;
64487;SDS011;50864;45.050;39.014;2023-04-06T07:32:52;9.13;;;4.95;;
64487;SDS011;50864;45.050;39.014;2023-04-06T07:35:18;18.50;;;5.78;;
64487;SDS011;50864;45.050;39.014;2023-04-06T07:37:44;11.27;;;5.75;;
64487;SDS011;50864;45.050;39.014;2023-04-06T07:40:10;9.35;;;5.05;;
64487;SDS011;50864;45.050;39.014;2023-04-06T07:42:36;12.25;;;5.50;;
64487;SDS011;50864;45.050;39.014;2023-04-06T07:45:03;13.45;;;6.40;;
64487;SDS011;50864;45.050;39.014;2023-04-06T07:47:29;10.15;;;5.87;;
64487;SDS011;50864;45.050;39.014;2023-04-06T07:49:55;12.68;;;5.62;;
64487;SDS011;50864;45.050;39.014;2023-04-06T07:52:24;12.93;;;6.18;;
64487;SDS011;50864;45.050;39.014;2023-04-06T07:54:50;17.65;;;8.95;;
64487;SDS011;50864;45.050;39.014;2023-04-06T07:57:16;13.90;;;7.12;;
64487;SDS011;50864;45.050;39.014;2023-04-06T07:59:42;12.05;;;6.70;;
64487;SDS011;50864;45.050;39.014;2023-04-06T08:02:08;13.05;;;6.72;;
64487;SDS011;50864;45.050;39.014;2023-04-06T08:04:34;12.63;;;7.72;;
64487;SDS011;50864;45.050;39.014;2023-04-06T08:07:00;14.95;;;7.05;;
64487;SDS011;50864;45.050;39.014;2023-04-06T08:09:26;10.43;;;5.93;;
64487;SDS011;50864;45.050;39.014;2023-04-06T08:11:52;14.02;;;7.00;;
64487;SDS011;50864;45.050;39.014;2023-04-06T08:14:18;11.90;;;6.50;;
64487;SDS011;50864;45.050;39.014;2023-04-06T08:16:48;17.12;;;7.45;;
64487;SDS011;50864;45.050;39.014;2023-04-06T08:19:14;14.50;;;7.50;;
64487;SDS011;50864;45.050;39.014;2023-04-06T08:21:42;12.43;;;7.43;;
64487;SDS011;50864;45.050;39.014;2023-04-06T08:24:08;19.80;;;9.07;;
64487;SDS011;50864;45.050;39.014;2023-04-06T08:26:34;12.88;;;7.70;;
64487;SDS011;50864;45.050;39.014;2023-04-06T08:29:00;14.65;;;7.87;;
64487;SDS011;50864;45.050;39.014;2023-04-06T08:31:26;13.00;;;7.15;;
64487;SDS011;50864;45.050;39.014;2023-04-06T08:33:53;15.27;;;7.97;;
64487;SDS011;50864;45.050;39.014;2023-04-06T08:36:18;13.95;;;7.65;;
64487;SDS011;50864;45.050;39.014;2023-04-06T08:38:48;14.32;;;7.72;;
64487;SDS011;50864;45.050;39.014;2023-04-06T08:41:15;15.32;;;8.43;;
64487;SDS011;50864;45.050;39.014;2023-04-06T08:43:56;13.15;;;8.00;;
64487;SDS011;50864;45.050;39.014;2023-04-06T08:46:23;17.15;;;8.88;;
64487;SDS011;50864;45.050;39.014;2023-04-06T08:48:54;15.40;;;9.73;;
64487;SDS011;50864;45.050;39.014;2023-04-06T08:51:20;15.07;;;8.10;;
64487;SDS011;50864;45.050;39.014;2023-04-06T08:53:48;14.18;;;8.10;;
64487;SDS011;50864;45.050;39.014;2023-04-06T08:56:15;14.18;;;8.32;;
64487;SDS011;50864;45.050;39.014;2023-04-06T08:58:41;15.90;;;8.07;;
64487;SDS011;50864;45.050;39.014;2023-04-06T09:01:08;17.10;;;9.18;;
64487;SDS011;50864;45.050;39.014;2023-04-06T09:03:35;13.80;;;8.63;;
64487;SDS011;50864;45.050;39.014;2023-04-06T09:06:02;14.85;;;7.93;;
64487;SDS011;50864;45.050;39.014;2023-04-06T09:08:29;13.27;;;8.10;;
64487;SDS011;50864;45.050;39.014;2023-04-06T09:10:55;13.05;;;7.45;;
64487;SDS011;50864;45.050;39.014;2023-04-06T09:13:21;13.18;;;6.80;;
64487;SDS011;50864;45.050;39.014;2023-04-06T09:15:57;12.60;;;6.35;;
64487;SDS011;50864;45.050;39.014;2023-04-06T09:18:32;12.27;;;7.10;;
64487;SDS011;50864;45.050;39.014;2023-04-06T09:21:03;10.45;;;6.55;;
64487;SDS011;50864;45.050;39.014;2023-04-06T09:23:29;13.18;;;6.70;;
64487;SDS011;50864;45.050;39.014;2023-04-06T09:28:40;13.75;;;6.65;;
64487;SDS011;50864;45.050;39.014;2023-04-06T09:31:06;11.00;;;6.25;;
64487;SDS011;50864;45.050;39.014;2023-04-06T09:33:32;11.15;;;6.43;;
64487;SDS011;50864;45.050;39.014;2023-04-06T09:35:58;12.40;;;6.62;;
64487;SDS011;50864;45.050;39.014;2023-04-06T09:38:23;18.20;;;10.27;;
64487;SDS011;50864;45.050;39.014;2023-04-06T09:40:50;10.15;;;6.37;;
64487;SDS011;50864;45.050;39.014;2023-04-06T09:43:28;11.52;;;6.40;;
64487;SDS011;50864;45.050;39.014;2023-04-06T09:45:58;11.10;;;6.18;;
64487;SDS011;50864;45.050;39.014;2023-04-06T09:48:25;10.48;;;6.18;;
64487;SDS011;50864;45.050;39.014;2023-04-06T09:50:53;11.93;;;6.43;;
64487;SDS011;50864;45.050;39.014;2023-04-06T09:53:23;9.75;;;5.45;;
64487;SDS011;50864;45.050;39.014;2023-04-06T09:55:50;10.15;;;5.43;;
64487;SDS011;50864;45.050;39.014;2023-04-06T09:58:18;8.75;;;5.12;;
64487;SDS011;50864;45.050;39.014;2023-04-06T10:01:10;9.38;;;4.90;;
64487;SDS011;50864;45.050;39.014;2023-04-06T10:06:05;8.63;;;5.00;;
64487;SDS011;50864;45.050;39.014;2023-04-06T10:08:32;10.35;;;5.10;;
64487;SDS011;50864;45.050;39.014;2023-04-06T10:10:59;7.53;;;4.28;;
64487;SDS011;50864;45.050;39.014;2023-04-06T10:13:26;17.23;;;9.98;;
64487;SDS011;50864;45.050;39.014;2023-04-06T10:15:52;8.75;;;5.43;;
64487;SDS011;50864;45.050;39.014;2023-04-06T10:18:18;8.20;;;5.22;;
64487;SDS011;50864;45.050;39.014;2023-04-06T10:20:53;9.10;;;5.37;;
64487;SDS011;50864;45.050;39.014;2023-04-06T10:25:56;12.20;;;6.43;;
64487;SDS011;50864;45.050;39.014;2023-04-06T10:28:23;6.78;;;3.53;;
64487;SDS011;50864;45.050;39.014;2023-04-06T10:30:49;6.55;;;3.72;;
64487;SDS011;50864;45.050;39.014;2023-04-06T10:35:40;7.12;;;3.75;;
64487;SDS011;50864;45.050;39.014;2023-04-06T10:38:06;8.23;;;4.70;;
64487;SDS011;50864;45.050;39.014;2023-04-06T10:40:35;10.23;;;4.10;;
64487;SDS011;50864;45.050;39.014;2023-04-06T10:43:08;6.40;;;3.80;;
64487;SDS011;50864;45.050;39.014;2023-04-06T10:45:34;7.70;;;3.60;;
64487;SDS011;50864;45.050;39.014;2023-04-06T10:48:01;6.82;;;3.58;;
64487;SDS011;50864;45.050;39.014;2023-04-06T10:50:27;8.75;;;4.90;;
64487;SDS011;50864;45.050;39.014;2023-04-06T10:53:00;8.32;;;3.90;;
64487;SDS011;50864;45.050;39.014;2023-04-06T10:55:26;11.48;;;5.82;;
64487;SDS011;50864;45.050;39.014;2023-04-06T10:57:53;10.55;;;4.37;;
64487;SDS011;50864;45.050;39.014;2023-04-06T11:00:19;8.48;;;3.35;;
64487;SDS011;50864;45.050;39.014;2023-04-06T11:02:45;7.50;;;3.80;;
64487;SDS011;50864;45.050;39.014;2023-04-06T11:05:12;8.05;;;3.90;;
64487;SDS011;50864;45.050;39.014;2023-04-06T11:07:39;5.87;;;3.22;;
64487;SDS011;50864;45.050;39.014;2023-04-06T11:10:05;9.23;;;3.80;;
64487;SDS011;50864;45.050;39.014;2023-04-06T11:12:31;8.85;;;4.60;;
64487;SDS011;50864;45.050;39.014;2023-04-06T11:17:33;6.80;;;3.80;;
64487;SDS011;50864;45.050;39.014;2023-04-06T11:19:59;6.90;;;3.58;;
64487;SDS011;50864;45.050;39.014;2023-04-06T11:22:25;4.45;;;2.60;;
64487;SDS011;50864;45.050;39.014;2023-04-06T11:24:51;8.65;;;4.30;;
64487;SDS011;50864;45.050;39.014;2023-04-06T11:27:17;7.32;;;3.83;;
64487;SDS011;50864;45.050;39.014;2023-04-06T11:29:43;9.52;;;4.60;;
64487;SDS011;50864;45.050;39.014;2023-04-06T11:32:11;7.85;;;3.78;;
64487;SDS011;50864;45.050;39.014;2023-04-06T11:34:38;7.25;;;3.97;;
64487;SDS011;50864;45.050;39.014;2023-04-06T11:37:08;7.95;;;3.70;;
64487;SDS011;50864;45.050;39.014;2023-04-06T11:39:37;9.00;;;3.72;;
64487;SDS011;50864;45.050;39.014;2023-04-06T11:42:04;9.82;;;5.78;;
64487;SDS011;50864;45.050;39.014;2023-04-06T11:44:36;8.32;;;4.45;;
64487;SDS011;50864;45.050;39.014;2023-04-06T11:47:05;6.65;;;3.30;;
64487;SDS011;50864;45.050;39.014;2023-04-06T11:49:31;6.78;;;3.37;;
64487;SDS011;50864;45.050;39.014;2023-04-06T11:51:58;8.27;;;3.67;;
64487;SDS011;50864;45.050;39.014;2023-04-06T11:54:34;5.95;;;3.42;;
64487;SDS011;50864;45.050;39.014;2023-04-06T11:57:00;5.93;;;2.92;;
64487;SDS011;50864;45.050;39.014;2023-04-06T11:59:27;6.90;;;3.55;;
64487;SDS011;50864;45.050;39.014;2023-04-06T12:01:53;6.28;;;3.72;;
64487;SDS011;50864;45.050;39.014;2023-04-06T12:04:19;5.87;;;3.30;;
64487;SDS011;50864;45.050;39.014;2023-04-06T12:06:45;5.95;;;3.10;;
64487;SDS011;50864;45.050;39.014;2023-04-06T12:09:11;6.45;;;3.03;;
64487;SDS011;50864;45.050;39.014;2023-04-06T12:11:37;4.95;;;3.20;;
64487;SDS011;50864;45.050;39.014;2023-04-06T12:14:03;7.82;;;4.00;;
64487;SDS011;50864;45.050;39.014;2023-04-06T12:16:30;9.80;;;3.55;;
64487;SDS011;50864;45.050;39.014;2023-04-06T12:18:56;6.60;;;3.45;;
64487;SDS011;50864;45.050;39.014;2023-04-06T12:21:22;5.40;;;3.15;;
64487;SDS011;50864;45.050;39.014;2023-04-06T12:23:48;7.32;;;3.70;;
64487;SDS011;50864;45.050;39.014;2023-04-06T12:26:14;8.32;;;3.70;;
64487;SDS011;50864;45.050;39.014;2023-04-06T12:28:40;8.15;;;4.95;;
64487;SDS011;50864;45.050;39.014;2023-04-06T12:31:06;8.30;;;3.87;;
64487;SDS011;50864;45.050;39.014;2023-04-06T12:33:32;8.88;;;4.03;;
64487;SDS011;50864;45.050;39.014;2023-04-06T12:35:58;7.75;;;4.00;;
64487;SDS011;50864;45.050;39.014;2023-04-06T12:38:23;8.30;;;3.53;;
64487;SDS011;50864;45.050;39.014;2023-04-06T12:40:50;7.85;;;3.85;;
64487;SDS011;50864;45.050;39.014;2023-04-06T12:43:16;7.57;;;3.42;;
64487;SDS011;50864;45.050;39.014;2023-04-06T12:45:41;6.72;;;4.05;;
64487;SDS011;50864;45.050;39.014;2023-04-06T12:48:07;10.07;;;4.55;;
64487;SDS011;50864;45.050;39.014;2023-04-06T12:50:33;9.85;;;4.07;;
64487;SDS011;50864;45.050;39.014;2023-04-06T12:52:59;9.45;;;4.55;;
64487;SDS011;50864;45.050;39.014;2023-04-06T12:55:25;7.30;;;4.03;;
64487;SDS011;50864;45.050;39.014;2023-04-06T12:57:50;7.25;;;4.00;;
64487;SDS011;50864;45.050;39.014;2023-04-06T13:00:16;9.05;;;4.30;;
64487;SDS011;50864;45.050;39.014;2023-04-06T13:02:42;9.85;;;4.18;;
64487;SDS011;50864;45.050;39.014;2023-04-06T13:05:13;7.55;;;4.03;;
64487;SDS011;50864;45.050;39.014;2023-04-06T13:07:40;8.68;;;3.53;;
64487;SDS011;50864;45.050;39.014;2023-04-06T13:10:06;9.27;;;4.40;;
64487;SDS011;50864;45.050;39.014;2023-04-06T13:12:32;8.55;;;3.80;;
64487;SDS011;50864;45.050;39.014;2023-04-06T13:14:57;7.32;;;3.62;;
64487;SDS011;50864;45.050;39.014;2023-04-06T13:17:23;8.57;;;4.07;;
64487;SDS011;50864;45.050;39.014;2023-04-06T13:19:49;7.45;;;4.12;;
64487;SDS011;50864;45.050;39.014;2023-04-06T13:22:15;9.63;;;4.80;;
64487;SDS011;50864;45.050;39.014;2023-04-06T13:24:41;10.77;;;5.57;;
64487;SDS011;50864;45.050;39.014;2023-04-06T13:27:07;10.60;;;4.07;;
64487;SDS011;50864;45.050;39.014;2023-04-06T13:29:32;8.32;;;4.65;;
64487;SDS011;50864;45.050;39.014;2023-04-06T13:31:59;11.73;;;5.68;;
64487;SDS011;50864;45.050;39.014;2023-04-06T13:34:25;11.38;;;6.43;;
64487;SDS011;50864;45.050;39.014;2023-04-06T13:36:51;12.07;;;6.60;;
64487;SDS011;50864;45.050;39.014;2023-04-06T13:39:17;13.93;;;6.07;;
64487;SDS011;50864;45.050;39.014;2023-04-06T13:41:43;9.52;;;4.90;;
64487;SDS011;50864;45.050;39.014;2023-04-06T13:44:09;9.40;;;5.87;;
64487;SDS011;50864;45.050;39.014;2023-04-06T13:46:35;10.05;;;4.45;;
64487;SDS011;50864;45.050;39.014;2023-04-06T13:49:01;9.18;;;4.70;;
64487;SDS011;50864;45.050;39.014;2023-04-06T13:51:27;10.25;;;4.78;;
64487;SDS011;50864;45.050;39.014;2023-04-06T13:53:53;9.10;;;4.80;;
64487;SDS011;50864;45.050;39.014;2023-04-06T13:56:19;7.10;;;4.25;;
64487;SDS011;50864;45.050;39.014;2023-04-06T13:58:45;10.15;;;5.00;;
64487;SDS011;50864;45.050;39.014;2023-04-06T14:01:11;9.65;;;5.07;;
64487;SDS011;50864;45.050;39.014;2023-04-06T14:03:37;8.90;;;4.55;;
64487;SDS011;50864;45.050;39.014;2023-04-06T14:06:11;7.93;;;4.53;;
64487;SDS011;50864;45.050;39.014;2023-04-06T14:08:37;11.68;;;5.40;;
64487;SDS011;50864;45.050;39.014;2023-04-06T14:11:03;11.80;;;5.37;;
64487;SDS011;50864;45.050;39.014;2023-04-06T14:13:28;8.15;;;4.62;;
64487;SDS011;50864;45.050;39.014;2023-04-06T14:15:54;8.05;;;4.45;;
64487;SDS011;50864;45.050;39.014;2023-04-06T14:18:21;10.13;;;4.65;;
64487;SDS011;50864;45.050;39.014;2023-04-06T14:20:54;8.93;;;4.62;;
64487;SDS011;50864;45.050;39.014;2023-04-06T14:23:20;8.85;;;4.07;;
64487;SDS011;50864;45.050;39.014;2023-04-06T14:25:46;6.62;;;3.65;;
64487;SDS011;50864;45.050;39.014;2023-04-06T14:28:12;9.07;;;4.60;;
64487;SDS011;50864;45.050;39.014;2023-04-06T14:30:38;7.55;;;4.00;;
64487;SDS011;50864;45.050;39.014;2023-04-06T14:33:03;7.40;;;4.03;;
64487;SDS011;50864;45.050;39.014;2023-04-06T14:35:29;8.07;;;4.00;;